sensor_id;sensor_type;location;lat;lon;timestamp;temperature;humidity
6462;DHT22;3264;42.862;25.098;2024-03-22T00:01:07;7.60;69.20
6462;DHT22;3264;42.862;25.098;2024-03-22T00:03:37;7.50;69.60
6462;DHT22;3264;42.862;25.098;2024-03-22T00:06:08;7.50;70.10
6462;DHT22;3264;42.862;25.098;2024-03-22T00:08:39;7.50;70.20
6462;DHT22;3264;42.862;25.098;2024-03-22T00:11:09;7.50;70.50
6462;DHT22;3264;42.862;25.098;2024-03-22T00:13:40;7.50;70.40
6462;DHT22;3264;42.862;25.098;2024-03-22T00:16:10;7.40;70.20
6462;DHT22;3264;42.862;25.098;2024-03-22T00:18:37;7.40;70.20
6462;DHT22;3264;42.862;25.098;2024-03-22T00:21:06;7.30;70.00
6462;DHT22;3264;42.862;25.098;2024-03-22T00:23:34;7.20;70.00
6462;DHT22;3264;42.862;25.098;2024-03-22T00:26:00;7.20;70.30
6462;DHT22;3264;42.862;25.098;2024-03-22T00:28:30;7.10;70.50
6462;DHT22;3264;42.862;25.098;2024-03-22T00:31:00;7.10;70.80
6462;DHT22;3264;42.862;25.098;2024-03-22T00:33:28;7.10;71.00
6462;DHT22;3264;42.862;25.098;2024-03-22T00:38:44;7.00;71.00
6462;DHT22;3264;42.862;25.098;2024-03-22T00:41:13;7.00;70.50
6462;DHT22;3264;42.862;25.098;2024-03-22T00:43:41;7.00;70.00
6462;DHT22;3264;42.862;25.098;2024-03-22T00:46:07;7.00;69.80
6462;DHT22;3264;42.862;25.098;2024-03-22T00:48:36;7.00;69.70
6462;DHT22;3264;42.862;25.098;2024-03-22T00:51:03;7.00;69.70
6462;DHT22;3264;42.862;25.098;2024-03-22T00:53:34;6.90;69.70
6462;DHT22;3264;42.862;25.098;2024-03-22T00:56:02;6.90;69.90
6462;DHT22;3264;42.862;25.098;2024-03-22T00:58:30;6.90;70.10
6462;DHT22;3264;42.862;25.098;2024-03-22T01:00:56;6.80;70.30
6462;DHT22;3264;42.862;25.098;2024-03-22T01:03:27;6.80;70.20
6462;DHT22;3264;42.862;25.098;2024-03-22T01:05:55;6.70;70.30
6462;DHT22;3264;42.862;25.098;2024-03-22T01:08:24;6.60;71.00
6462;DHT22;3264;42.862;25.098;2024-03-22T01:10:56;6.60;71.70
6462;DHT22;3264;42.862;25.098;2024-03-22T01:13:25;6.60;72.00
6462;DHT22;3264;42.862;25.098;2024-03-22T01:15:52;6.60;72.20
6462;DHT22;3264;42.862;25.098;2024-03-22T01:18:21;6.60;72.50
6462;DHT22;3264;42.862;25.098;2024-03-22T01:20:50;6.60;72.90
6462;DHT22;3264;42.862;25.098;2024-03-22T01:23:18;6.60;73.10
6462;DHT22;3264;42.862;25.098;2024-03-22T01:25:47;6.60;73.10
6462;DHT22;3264;42.862;25.098;2024-03-22T01:28:18;6.60;73.50
6462;DHT22;3264;42.862;25.098;2024-03-22T01:30:46;6.60;73.70
6462;DHT22;3264;42.862;25.098;2024-03-22T01:33:14;6.60;74.40
6462;DHT22;3264;42.862;25.098;2024-03-22T01:35:43;6.60;74.90
6462;DHT22;3264;42.862;25.098;2024-03-22T01:38:11;6.60;75.10
6462;DHT22;3264;42.862;25.098;2024-03-22T01:40:40;6.60;75.40
6462;DHT22;3264;42.862;25.098;2024-03-22T01:43:09;6.60;75.30
6462;DHT22;3264;42.862;25.098;2024-03-22T01:45:37;6.70;75.50
6462;DHT22;3264;42.862;25.098;2024-03-22T01:48:23;6.60;75.80
6462;DHT22;3264;42.862;25.098;2024-03-22T01:50:52;6.70;75.90
6462;DHT22;3264;42.862;25.098;2024-03-22T01:53:22;6.70;75.70
6462;DHT22;3264;42.862;25.098;2024-03-22T01:55:49;6.70;75.80
6462;DHT22;3264;42.862;25.098;2024-03-22T01:58:19;6.70;75.90
6462;DHT22;3264;42.862;25.098;2024-03-22T02:00:49;6.80;75.90
6462;DHT22;3264;42.862;25.098;2024-03-22T02:03:30;6.70;75.90
6462;DHT22;3264;42.862;25.098;2024-03-22T02:05:57;6.70;76.60
6462;DHT22;3264;42.862;25.098;2024-03-22T02:08:29;6.70;77.10
6462;DHT22;3264;42.862;25.098;2024-03-22T02:10:55;6.70;77.40
6462;DHT22;3264;42.862;25.098;2024-03-22T02:13:23;6.70;77.30
6462;DHT22;3264;42.862;25.098;2024-03-22T02:15:53;6.60;77.20
6462;DHT22;3264;42.862;25.098;2024-03-22T02:18:23;6.60;77.60
6462;DHT22;3264;42.862;25.098;2024-03-22T02:20:52;6.60;77.80
6462;DHT22;3264;42.862;25.098;2024-03-22T02:23:31;6.50;77.80
6462;DHT22;3264;42.862;25.098;2024-03-22T02:25:58;6.50;77.90
6462;DHT22;3264;42.862;25.098;2024-03-22T02:28:29;6.50;77.70
6462;DHT22;3264;42.862;25.098;2024-03-22T02:30:56;6.40;77.40
6462;DHT22;3264;42.862;25.098;2024-03-22T02:33:25;6.40;77.40
6462;DHT22;3264;42.862;25.098;2024-03-22T02:35:55;6.40;77.90
6462;DHT22;3264;42.862;25.098;2024-03-22T02:38:27;6.30;78.00
6462;DHT22;3264;42.862;25.098;2024-03-22T02:40:54;6.30;78.30
6462;DHT22;3264;42.862;25.098;2024-03-22T02:43:25;6.30;78.30
6462;DHT22;3264;42.862;25.098;2024-03-22T02:45:51;6.30;78.20
6462;DHT22;3264;42.862;25.098;2024-03-22T02:48:19;6.20;78.00
6462;DHT22;3264;42.862;25.098;2024-03-22T02:50:48;6.20;78.40
6462;DHT22;3264;42.862;25.098;2024-03-22T02:53:16;6.20;78.80
6462;DHT22;3264;42.862;25.098;2024-03-22T02:55:47;6.20;79.30
6462;DHT22;3264;42.862;25.098;2024-03-22T02:58:14;6.10;79.60
6462;DHT22;3264;42.862;25.098;2024-03-22T03:00:41;6.10;79.60
6462;DHT22;3264;42.862;25.098;2024-03-22T03:03:14;6.10;79.90
6462;DHT22;3264;42.862;25.098;2024-03-22T03:05:42;6.10;80.10
6462;DHT22;3264;42.862;25.098;2024-03-22T03:08:12;6.10;80.30
6462;DHT22;3264;42.862;25.098;2024-03-22T03:10:38;6.10;80.30
6462;DHT22;3264;42.862;25.098;2024-03-22T03:13:10;6.10;80.10
6462;DHT22;3264;42.862;25.098;2024-03-22T03:15:38;6.10;80.10
6462;DHT22;3264;42.862;25.098;2024-03-22T03:18:06;6.10;80.00
6462;DHT22;3264;42.862;25.098;2024-03-22T03:20:32;6.10;80.10
6462;DHT22;3264;42.862;25.098;2024-03-22T03:23:00;6.00;80.20
6462;DHT22;3264;42.862;25.098;2024-03-22T03:25:29;5.90;80.20
6462;DHT22;3264;42.862;25.098;2024-03-22T03:27:57;5.90;80.40
6462;DHT22;3264;42.862;25.098;2024-03-22T03:30:25;5.80;80.20
6462;DHT22;3264;42.862;25.098;2024-03-22T03:32:53;5.80;80.20
6462;DHT22;3264;42.862;25.098;2024-03-22T03:35:19;5.70;80.20
6462;DHT22;3264;42.862;25.098;2024-03-22T03:37:48;5.70;80.60
6462;DHT22;3264;42.862;25.098;2024-03-22T03:40:39;5.70;81.10
6462;DHT22;3264;42.862;25.098;2024-03-22T03:43:07;5.60;81.20
6462;DHT22;3264;42.862;25.098;2024-03-22T03:45:38;5.60;81.50
6462;DHT22;3264;42.862;25.098;2024-03-22T03:48:08;5.60;81.70
6462;DHT22;3264;42.862;25.098;2024-03-22T03:50:35;5.60;81.70
6462;DHT22;3264;42.862;25.098;2024-03-22T03:53:02;5.60;81.70
6462;DHT22;3264;42.862;25.098;2024-03-22T03:55:29;5.50;81.90
6462;DHT22;3264;42.862;25.098;2024-03-22T03:58:00;5.50;81.90
6462;DHT22;3264;42.862;25.098;2024-03-22T04:00:26;5.40;81.90
6462;DHT22;3264;42.862;25.098;2024-03-22T04:02:56;5.30;82.10
6462;DHT22;3264;42.862;25.098;2024-03-22T04:05:24;5.30;82.40
6462;DHT22;3264;42.862;25.098;2024-03-22T04:07:52;5.20;82.60
6462;DHT22;3264;42.862;25.098;2024-03-22T04:10:20;5.20;82.80
6462;DHT22;3264;42.862;25.098;2024-03-22T04:12:47;5.20;82.90
6462;DHT22;3264;42.862;25.098;2024-03-22T04:15:14;5.20;83.20
6462;DHT22;3264;42.862;25.098;2024-03-22T04:17:44;5.20;83.80
6462;DHT22;3264;42.862;25.098;2024-03-22T04:20:13;5.20;84.00
6462;DHT22;3264;42.862;25.098;2024-03-22T04:22:41;5.20;83.80
6462;DHT22;3264;42.862;25.098;2024-03-22T04:25:08;5.10;83.60
6462;DHT22;3264;42.862;25.098;2024-03-22T04:27:40;5.10;83.80
6462;DHT22;3264;42.862;25.098;2024-03-22T04:30:12;5.00;83.90
6462;DHT22;3264;42.862;25.098;2024-03-22T04:32:44;5.00;84.20
6462;DHT22;3264;42.862;25.098;2024-03-22T04:35:13;5.00;84.30
6462;DHT22;3264;42.862;25.098;2024-03-22T04:37:41;5.00;84.50
6462;DHT22;3264;42.862;25.098;2024-03-22T04:40:14;5.10;84.40
6462;DHT22;3264;42.862;25.098;2024-03-22T04:42:47;5.10;84.20
6462;DHT22;3264;42.862;25.098;2024-03-22T04:45:17;5.20;84.30
6462;DHT22;3264;42.862;25.098;2024-03-22T04:47:45;5.20;84.10
6462;DHT22;3264;42.862;25.098;2024-03-22T04:50:15;5.30;84.60
6462;DHT22;3264;42.862;25.098;2024-03-22T04:52:42;5.30;84.90
6462;DHT22;3264;42.862;25.098;2024-03-22T04:55:12;5.40;85.00
6462;DHT22;3264;42.862;25.098;2024-03-22T04:57:51;5.40;85.00
6462;DHT22;3264;42.862;25.098;2024-03-22T05:00:24;5.50;84.90
6462;DHT22;3264;42.862;25.098;2024-03-22T05:02:51;5.60;84.60
6462;DHT22;3264;42.862;25.098;2024-03-22T05:05:20;5.70;84.10
6462;DHT22;3264;42.862;25.098;2024-03-22T05:07:46;5.80;84.00
6462;DHT22;3264;42.862;25.098;2024-03-22T05:10:16;5.90;83.60
6462;DHT22;3264;42.862;25.098;2024-03-22T05:12:43;6.10;83.10
6462;DHT22;3264;42.862;25.098;2024-03-22T05:15:13;6.20;82.40
6462;DHT22;3264;42.862;25.098;2024-03-22T05:17:45;6.30;81.20
6462;DHT22;3264;42.862;25.098;2024-03-22T05:20:28;6.40;81.00
6462;DHT22;3264;42.862;25.098;2024-03-22T05:22:56;6.40;81.30
6462;DHT22;3264;42.862;25.098;2024-03-22T05:25:23;6.50;81.70
6462;DHT22;3264;42.862;25.098;2024-03-22T05:27:52;6.60;81.70
6462;DHT22;3264;42.862;25.098;2024-03-22T05:30:20;6.70;81.20
6462;DHT22;3264;42.862;25.098;2024-03-22T05:32:47;6.90;81.00
6462;DHT22;3264;42.862;25.098;2024-03-22T05:35:16;6.90;79.80
6462;DHT22;3264;42.862;25.098;2024-03-22T05:37:46;7.00;78.50
6462;DHT22;3264;42.862;25.098;2024-03-22T05:40:14;7.10;78.40
6462;DHT22;3264;42.862;25.098;2024-03-22T05:42:43;7.30;78.10
6462;DHT22;3264;42.862;25.098;2024-03-22T05:45:09;7.50;77.00
6462;DHT22;3264;42.862;25.098;2024-03-22T05:47:38;7.60;75.90
6462;DHT22;3264;42.862;25.098;2024-03-22T05:50:05;7.60;76.10
6462;DHT22;3264;42.862;25.098;2024-03-22T05:52:35;7.70;75.80
6462;DHT22;3264;42.862;25.098;2024-03-22T05:55:03;7.60;74.80
6462;DHT22;3264;42.862;25.098;2024-03-22T05:57:32;7.70;75.30
6462;DHT22;3264;42.862;25.098;2024-03-22T05:59:59;7.70;74.80
6462;DHT22;3264;42.862;25.098;2024-03-22T06:02:28;7.70;74.80
6462;DHT22;3264;42.862;25.098;2024-03-22T06:04:55;7.70;75.30
6462;DHT22;3264;42.862;25.098;2024-03-22T06:07:23;7.90;75.10
6462;DHT22;3264;42.862;25.098;2024-03-22T06:09:50;8.10;74.80
6462;DHT22;3264;42.862;25.098;2024-03-22T06:12:21;8.20;73.90
6462;DHT22;3264;42.862;25.098;2024-03-22T06:14:48;8.50;74.50
6462;DHT22;3264;42.862;25.098;2024-03-22T06:17:16;8.80;74.00
6462;DHT22;3264;42.862;25.098;2024-03-22T06:19:43;9.20;72.90
6462;DHT22;3264;42.862;25.098;2024-03-22T06:22:11;9.40;72.00
6462;DHT22;3264;42.862;25.098;2024-03-22T06:24:39;9.60;71.30
6462;DHT22;3264;42.862;25.098;2024-03-22T06:27:07;9.70;68.90
6462;DHT22;3264;42.862;25.098;2024-03-22T06:29:37;9.90;69.00
6462;DHT22;3264;42.862;25.098;2024-03-22T06:32:08;10.10;67.40
6462;DHT22;3264;42.862;25.098;2024-03-22T06:34:36;10.10;63.80
6462;DHT22;3264;42.862;25.098;2024-03-22T06:37:03;10.30;65.00
6462;DHT22;3264;42.862;25.098;2024-03-22T06:39:31;10.50;64.70
6462;DHT22;3264;42.862;25.098;2024-03-22T06:41:58;10.60;63.00
6462;DHT22;3264;42.862;25.098;2024-03-22T06:44:26;10.90;62.80
6462;DHT22;3264;42.862;25.098;2024-03-22T06:46:55;11.20;60.60
6462;DHT22;3264;42.862;25.098;2024-03-22T06:49:23;11.40;59.70
6462;DHT22;3264;42.862;25.098;2024-03-22T06:51:50;11.60;58.90
6462;DHT22;3264;42.862;25.098;2024-03-22T06:54:17;11.90;57.30
6462;DHT22;3264;42.862;25.098;2024-03-22T06:56:44;12.00;56.90
6462;DHT22;3264;42.862;25.098;2024-03-22T06:59:13;12.20;55.80
6462;DHT22;3264;42.862;25.098;2024-03-22T07:01:40;12.30;55.40
6462;DHT22;3264;42.862;25.098;2024-03-22T07:04:10;12.60;55.50
6462;DHT22;3264;42.862;25.098;2024-03-22T07:06:37;12.90;54.90
6462;DHT22;3264;42.862;25.098;2024-03-22T07:09:06;13.20;52.20
6462;DHT22;3264;42.862;25.098;2024-03-22T07:11:33;13.40;52.50
6462;DHT22;3264;42.862;25.098;2024-03-22T07:14:01;13.40;50.20
6462;DHT22;3264;42.862;25.098;2024-03-22T07:16:28;13.30;50.10
6462;DHT22;3264;42.862;25.098;2024-03-22T07:18:56;12.80;50.70
6462;DHT22;3264;42.862;25.098;2024-03-22T07:21:24;13.00;52.30
6462;DHT22;3264;42.862;25.098;2024-03-22T07:23:52;13.20;51.20
6462;DHT22;3264;42.862;25.098;2024-03-22T07:26:19;13.60;51.10
6462;DHT22;3264;42.862;25.098;2024-03-22T07:28:47;13.80;49.40
6462;DHT22;3264;42.862;25.098;2024-03-22T07:31:14;13.60;50.00
6462;DHT22;3264;42.862;25.098;2024-03-22T07:33:41;13.60;50.10
6462;DHT22;3264;42.862;25.098;2024-03-22T07:36:09;13.80;50.00
6462;DHT22;3264;42.862;25.098;2024-03-22T07:38:38;14.10;49.70
6462;DHT22;3264;42.862;25.098;2024-03-22T07:41:07;14.50;49.50
6462;DHT22;3264;42.862;25.098;2024-03-22T07:43:34;14.80;48.40
6462;DHT22;3264;42.862;25.098;2024-03-22T07:46:01;15.10;47.80
6462;DHT22;3264;42.862;25.098;2024-03-22T07:48:29;15.30;47.30
6462;DHT22;3264;42.862;25.098;2024-03-22T07:50:57;15.30;47.00
6462;DHT22;3264;42.862;25.098;2024-03-22T07:53:26;15.60;46.10
6462;DHT22;3264;42.862;25.098;2024-03-22T07:55:54;15.80;46.50
6462;DHT22;3264;42.862;25.098;2024-03-22T07:58:21;16.10;46.30
6462;DHT22;3264;42.862;25.098;2024-03-22T08:00:48;16.30;45.80
6462;DHT22;3264;42.862;25.098;2024-03-22T08:03:16;16.50;45.20
6462;DHT22;3264;42.862;25.098;2024-03-22T08:05:43;16.40;42.60
6462;DHT22;3264;42.862;25.098;2024-03-22T08:08:11;16.40;44.80
6462;DHT22;3264;42.862;25.098;2024-03-22T08:10:37;16.50;43.60
6462;DHT22;3264;42.862;25.098;2024-03-22T08:13:07;16.50;42.70
6462;DHT22;3264;42.862;25.098;2024-03-22T08:15:35;16.50;41.50
6462;DHT22;3264;42.862;25.098;2024-03-22T08:18:04;16.30;42.30
6462;DHT22;3264;42.862;25.098;2024-03-22T08:20:30;16.50;42.90
6462;DHT22;3264;42.862;25.098;2024-03-22T08:23:00;16.50;42.60
6462;DHT22;3264;42.862;25.098;2024-03-22T08:25:27;16.60;42.30
6462;DHT22;3264;42.862;25.098;2024-03-22T08:27:55;16.60;42.00
6462;DHT22;3264;42.862;25.098;2024-03-22T08:30:24;16.50;41.20
6462;DHT22;3264;42.862;25.098;2024-03-22T08:32:53;16.50;41.80
6462;DHT22;3264;42.862;25.098;2024-03-22T08:35:20;16.30;41.00
6462;DHT22;3264;42.862;25.098;2024-03-22T08:37:48;16.10;41.40
6462;DHT22;3264;42.862;25.098;2024-03-22T08:40:15;16.20;41.40
6462;DHT22;3264;42.862;25.098;2024-03-22T08:42:43;16.10;40.70
6462;DHT22;3264;42.862;25.098;2024-03-22T08:45:11;16.00;40.60
6462;DHT22;3264;42.862;25.098;2024-03-22T08:47:40;16.40;42.10
6462;DHT22;3264;42.862;25.098;2024-03-22T08:50:07;16.90;40.80
6462;DHT22;3264;42.862;25.098;2024-03-22T08:52:35;17.50;41.50
6462;DHT22;3264;42.862;25.098;2024-03-22T08:55:03;18.00;40.10
6462;DHT22;3264;42.862;25.098;2024-03-22T08:57:32;18.00;38.40
6462;DHT22;3264;42.862;25.098;2024-03-22T08:59:59;17.90;38.10
6462;DHT22;3264;42.862;25.098;2024-03-22T09:02:27;17.30;36.00
6462;DHT22;3264;42.862;25.098;2024-03-22T09:04:55;17.20;38.00
6462;DHT22;3264;42.862;25.098;2024-03-22T09:07:23;17.70;38.90
6462;DHT22;3264;42.862;25.098;2024-03-22T09:09:51;18.10;38.40
6462;DHT22;3264;42.862;25.098;2024-03-22T09:12:19;18.50;36.40
6462;DHT22;3264;42.862;25.098;2024-03-22T09:14:46;18.40;34.50
6462;DHT22;3264;42.862;25.098;2024-03-22T09:17:14;18.30;36.50
6462;DHT22;3264;42.862;25.098;2024-03-22T09:19:41;18.20;36.60
6462;DHT22;3264;42.862;25.098;2024-03-22T09:22:10;18.20;37.70
6462;DHT22;3264;42.862;25.098;2024-03-22T09:24:37;18.20;39.70
6462;DHT22;3264;42.862;25.098;2024-03-22T09:27:11;18.30;39.10
6462;DHT22;3264;42.862;25.098;2024-03-22T09:29:38;18.40;37.70
6462;DHT22;3264;42.862;25.098;2024-03-22T09:32:06;18.50;38.60
6462;DHT22;3264;42.862;25.098;2024-03-22T09:34:33;18.60;38.10
6462;DHT22;3264;42.862;25.098;2024-03-22T09:37:01;18.60;39.00
6462;DHT22;3264;42.862;25.098;2024-03-22T09:39:29;18.30;38.40
6462;DHT22;3264;42.862;25.098;2024-03-22T09:41:59;18.10;39.10
6462;DHT22;3264;42.862;25.098;2024-03-22T09:44:28;17.90;38.60
6462;DHT22;3264;42.862;25.098;2024-03-22T09:46:56;17.90;40.70
6462;DHT22;3264;42.862;25.098;2024-03-22T09:49:24;18.10;39.20
6462;DHT22;3264;42.862;25.098;2024-03-22T09:51:52;18.10;39.60
6462;DHT22;3264;42.862;25.098;2024-03-22T09:54:21;18.30;39.50
6462;DHT22;3264;42.862;25.098;2024-03-22T09:56:51;18.40;39.30
6462;DHT22;3264;42.862;25.098;2024-03-22T09:59:18;18.40;39.20
6462;DHT22;3264;42.862;25.098;2024-03-22T10:01:46;18.30;38.90
6462;DHT22;3264;42.862;25.098;2024-03-22T10:04:13;18.40;39.00
6462;DHT22;3264;42.862;25.098;2024-03-22T10:06:41;18.40;40.30
6462;DHT22;3264;42.862;25.098;2024-03-22T10:09:09;18.40;38.50
6462;DHT22;3264;42.862;25.098;2024-03-22T10:11:37;18.60;38.60
6462;DHT22;3264;42.862;25.098;2024-03-22T10:14:05;18.50;37.60
6462;DHT22;3264;42.862;25.098;2024-03-22T10:16:35;18.40;37.90
6462;DHT22;3264;42.862;25.098;2024-03-22T10:19:02;18.30;38.10
6462;DHT22;3264;42.862;25.098;2024-03-22T10:21:30;18.50;38.20
6462;DHT22;3264;42.862;25.098;2024-03-22T10:23:57;18.50;37.50
6462;DHT22;3264;42.862;25.098;2024-03-22T10:26:25;18.50;36.60
6462;DHT22;3264;42.862;25.098;2024-03-22T10:28:53;18.30;35.70
6462;DHT22;3264;42.862;25.098;2024-03-22T10:31:23;17.80;37.40
6462;DHT22;3264;42.862;25.098;2024-03-22T10:33:49;18.00;37.50
6462;DHT22;3264;42.862;25.098;2024-03-22T10:36:18;17.90;37.50
6462;DHT22;3264;42.862;25.098;2024-03-22T10:38:47;18.10;38.10
6462;DHT22;3264;42.862;25.098;2024-03-22T10:41:17;18.40;37.40
6462;DHT22;3264;42.862;25.098;2024-03-22T10:43:44;18.40;35.40
6462;DHT22;3264;42.862;25.098;2024-03-22T10:46:13;18.40;36.80
6462;DHT22;3264;42.862;25.098;2024-03-22T10:48:42;18.60;35.20
6462;DHT22;3264;42.862;25.098;2024-03-22T10:51:11;18.50;35.70
6462;DHT22;3264;42.862;25.098;2024-03-22T10:53:38;18.20;36.30
6462;DHT22;3264;42.862;25.098;2024-03-22T10:56:07;18.30;36.70
6462;DHT22;3264;42.862;25.098;2024-03-22T10:58:39;18.40;38.40
6462;DHT22;3264;42.862;25.098;2024-03-22T11:01:21;18.70;37.70
6462;DHT22;3264;42.862;25.098;2024-03-22T11:03:51;18.70;36.80
6462;DHT22;3264;42.862;25.098;2024-03-22T11:06:20;18.90;37.80
6462;DHT22;3264;42.862;25.098;2024-03-22T11:08:50;18.90;35.80
6462;DHT22;3264;42.862;25.098;2024-03-22T11:11:19;19.00;37.60
6462;DHT22;3264;42.862;25.098;2024-03-22T11:13:47;19.00;35.80
6462;DHT22;3264;42.862;25.098;2024-03-22T11:16:16;18.60;36.30
6462;DHT22;3264;42.862;25.098;2024-03-22T11:18:43;18.60;38.00
6462;DHT22;3264;42.862;25.098;2024-03-22T11:21:12;18.70;37.30
6462;DHT22;3264;42.862;25.098;2024-03-22T11:23:39;19.00;38.50
6462;DHT22;3264;42.862;25.098;2024-03-22T11:26:06;19.10;36.20
6462;DHT22;3264;42.862;25.098;2024-03-22T11:28:34;18.60;34.90
6462;DHT22;3264;42.862;25.098;2024-03-22T11:31:03;18.30;38.10
6462;DHT22;3264;42.862;25.098;2024-03-22T11:33:31;18.20;36.30
6462;DHT22;3264;42.862;25.098;2024-03-22T11:36:00;18.00;37.00
6462;DHT22;3264;42.862;25.098;2024-03-22T11:38:28;17.90;37.80
6462;DHT22;3264;42.862;25.098;2024-03-22T11:40:58;18.30;39.20
6462;DHT22;3264;42.862;25.098;2024-03-22T11:43:26;18.50;38.10
6462;DHT22;3264;42.862;25.098;2024-03-22T11:45:55;18.70;38.10
6462;DHT22;3264;42.862;25.098;2024-03-22T11:48:23;18.70;36.20
6462;DHT22;3264;42.862;25.098;2024-03-22T11:50:51;18.60;36.90
6462;DHT22;3264;42.862;25.098;2024-03-22T11:53:18;18.60;37.90
6462;DHT22;3264;42.862;25.098;2024-03-22T11:55:49;18.80;39.10
6462;DHT22;3264;42.862;25.098;2024-03-22T11:58:19;19.00;38.10
6462;DHT22;3264;42.862;25.098;2024-03-22T12:00:48;19.10;37.80
6462;DHT22;3264;42.862;25.098;2024-03-22T12:03:16;18.90;38.00
6462;DHT22;3264;42.862;25.098;2024-03-22T12:05:44;18.90;38.00
6462;DHT22;3264;42.862;25.098;2024-03-22T12:08:12;19.00;37.80
6462;DHT22;3264;42.862;25.098;2024-03-22T12:10:40;18.90;36.60
6462;DHT22;3264;42.862;25.098;2024-03-22T12:13:09;18.80;37.20
6462;DHT22;3264;42.862;25.098;2024-03-22T12:15:37;18.70;35.80
6462;DHT22;3264;42.862;25.098;2024-03-22T12:18:03;18.20;36.40
6462;DHT22;3264;42.862;25.098;2024-03-22T12:20:32;18.00;38.60
6462;DHT22;3264;42.862;25.098;2024-03-22T12:22:59;17.90;38.80
6462;DHT22;3264;42.862;25.098;2024-03-22T12:25:28;18.20;38.80
6462;DHT22;3264;42.862;25.098;2024-03-22T12:27:55;18.50;38.30
6462;DHT22;3264;42.862;25.098;2024-03-22T12:30:24;18.60;36.80
6462;DHT22;3264;42.862;25.098;2024-03-22T12:32:53;18.70;39.20
6462;DHT22;3264;42.862;25.098;2024-03-22T12:35:20;19.00;38.40
6462;DHT22;3264;42.862;25.098;2024-03-22T12:37:47;19.20;36.90
6462;DHT22;3264;42.862;25.098;2024-03-22T12:40:15;19.20;37.30
6462;DHT22;3264;42.862;25.098;2024-03-22T12:42:41;19.30;38.60
6462;DHT22;3264;42.862;25.098;2024-03-22T12:45:25;19.30;38.00
6462;DHT22;3264;42.862;25.098;2024-03-22T12:47:52;19.40;37.50
6462;DHT22;3264;42.862;25.098;2024-03-22T12:50:20;19.50;38.10
6462;DHT22;3264;42.862;25.098;2024-03-22T12:52:46;19.40;35.00
6462;DHT22;3264;42.862;25.098;2024-03-22T12:55:15;18.90;35.60
6462;DHT22;3264;42.862;25.098;2024-03-22T12:57:42;18.50;37.10
6462;DHT22;3264;42.862;25.098;2024-03-22T13:00:19;18.40;37.70
6462;DHT22;3264;42.862;25.098;2024-03-22T13:02:48;18.30;37.80
6462;DHT22;3264;42.862;25.098;2024-03-22T13:05:15;18.40;37.80
6462;DHT22;3264;42.862;25.098;2024-03-22T13:07:42;18.40;37.50
6462;DHT22;3264;42.862;25.098;2024-03-22T13:10:10;18.60;38.20
6462;DHT22;3264;42.862;25.098;2024-03-22T13:12:37;18.50;37.50
6462;DHT22;3264;42.862;25.098;2024-03-22T13:15:05;18.40;37.70
6462;DHT22;3264;42.862;25.098;2024-03-22T13:17:32;18.50;39.20
6462;DHT22;3264;42.862;25.098;2024-03-22T13:20:03;18.70;39.00
6462;DHT22;3264;42.862;25.098;2024-03-22T13:22:37;18.60;36.70
6462;DHT22;3264;42.862;25.098;2024-03-22T13:25:05;18.40;38.30
6462;DHT22;3264;42.862;25.098;2024-03-22T13:27:34;18.50;38.90
6462;DHT22;3264;42.862;25.098;2024-03-22T13:30:03;18.10;36.60
6462;DHT22;3264;42.862;25.098;2024-03-22T13:32:31;17.90;38.20
6462;DHT22;3264;42.862;25.098;2024-03-22T13:34:59;17.80;39.70
6462;DHT22;3264;42.862;25.098;2024-03-22T13:37:27;17.90;40.10
6462;DHT22;3264;42.862;25.098;2024-03-22T13:39:54;18.20;40.40
6462;DHT22;3264;42.862;25.098;2024-03-22T13:42:22;18.50;39.70
6462;DHT22;3264;42.862;25.098;2024-03-22T13:44:51;18.40;37.30
6462;DHT22;3264;42.862;25.098;2024-03-22T13:47:18;18.20;38.20
6462;DHT22;3264;42.862;25.098;2024-03-22T13:49:47;18.20;37.90
6462;DHT22;3264;42.862;25.098;2024-03-22T13:52:14;18.20;38.30
6462;DHT22;3264;42.862;25.098;2024-03-22T13:54:43;18.20;38.70
6462;DHT22;3264;42.862;25.098;2024-03-22T13:57:10;18.20;38.20
6462;DHT22;3264;42.862;25.098;2024-03-22T13:59:38;18.40;38.50
6462;DHT22;3264;42.862;25.098;2024-03-22T14:02:06;18.40;39.10
6462;DHT22;3264;42.862;25.098;2024-03-22T14:04:35;18.50;38.40
6462;DHT22;3264;42.862;25.098;2024-03-22T14:07:02;18.50;39.10
6462;DHT22;3264;42.862;25.098;2024-03-22T14:09:31;18.50;39.20
6462;DHT22;3264;42.862;25.098;2024-03-22T14:12:00;18.40;38.00
6462;DHT22;3264;42.862;25.098;2024-03-22T14:14:29;18.40;38.70
6462;DHT22;3264;42.862;25.098;2024-03-22T14:16:56;18.40;38.70
6462;DHT22;3264;42.862;25.098;2024-03-22T14:19:24;18.40;39.00
6462;DHT22;3264;42.862;25.098;2024-03-22T14:21:51;18.40;38.80
6462;DHT22;3264;42.862;25.098;2024-03-22T14:24:20;18.00;38.30
6462;DHT22;3264;42.862;25.098;2024-03-22T14:26:47;17.90;40.20
6462;DHT22;3264;42.862;25.098;2024-03-22T14:29:17;18.00;40.90
6462;DHT22;3264;42.862;25.098;2024-03-22T14:31:48;17.90;40.10
6462;DHT22;3264;42.862;25.098;2024-03-22T14:34:16;17.90;40.20
6462;DHT22;3264;42.862;25.098;2024-03-22T14:36:45;18.00;40.60
6462;DHT22;3264;42.862;25.098;2024-03-22T14:39:13;18.00;40.00
6462;DHT22;3264;42.862;25.098;2024-03-22T14:41:41;18.00;40.20
6462;DHT22;3264;42.862;25.098;2024-03-22T14:44:09;18.10;40.30
6462;DHT22;3264;42.862;25.098;2024-03-22T14:46:38;18.00;39.40
6462;DHT22;3264;42.862;25.098;2024-03-22T14:49:06;17.80;38.90
6462;DHT22;3264;42.862;25.098;2024-03-22T14:51:34;17.40;38.90
6462;DHT22;3264;42.862;25.098;2024-03-22T14:54:01;17.00;39.20
6462;DHT22;3264;42.862;25.098;2024-03-22T14:56:30;16.90;40.10
6462;DHT22;3264;42.862;25.098;2024-03-22T14:58:57;17.00;40.70
6462;DHT22;3264;42.862;25.098;2024-03-22T15:01:27;16.90;40.20
6462;DHT22;3264;42.862;25.098;2024-03-22T15:03:55;16.70;40.60
6462;DHT22;3264;42.862;25.098;2024-03-22T15:06:24;16.60;40.40
6462;DHT22;3264;42.862;25.098;2024-03-22T15:08:50;16.50;40.60
6462;DHT22;3264;42.862;25.098;2024-03-22T15:11:18;16.30;41.80
6462;DHT22;3264;42.862;25.098;2024-03-22T15:13:46;16.40;42.70
6462;DHT22;3264;42.862;25.098;2024-03-22T15:16:13;16.30;42.40
6462;DHT22;3264;42.862;25.098;2024-03-22T15:18:41;16.30;42.80
6462;DHT22;3264;42.862;25.098;2024-03-22T15:21:11;16.40;43.30
6462;DHT22;3264;42.862;25.098;2024-03-22T15:23:38;16.30;42.70
6462;DHT22;3264;42.862;25.098;2024-03-22T15:26:06;16.20;42.80
6462;DHT22;3264;42.862;25.098;2024-03-22T15:28:33;16.20;42.60
6462;DHT22;3264;42.862;25.098;2024-03-22T15:31:01;16.20;43.30
6462;DHT22;3264;42.862;25.098;2024-03-22T15:33:27;16.10;43.30
6462;DHT22;3264;42.862;25.098;2024-03-22T15:35:56;16.00;43.40
6462;DHT22;3264;42.862;25.098;2024-03-22T15:38:24;15.90;43.20
6462;DHT22;3264;42.862;25.098;2024-03-22T15:40:52;15.80;43.70
6462;DHT22;3264;42.862;25.098;2024-03-22T15:43:20;15.60;43.40
6462;DHT22;3264;42.862;25.098;2024-03-22T15:45:47;15.60;43.30
6462;DHT22;3264;42.862;25.098;2024-03-22T15:48:14;15.40;43.20
6462;DHT22;3264;42.862;25.098;2024-03-22T15:50:46;15.20;44.30
6462;DHT22;3264;42.862;25.098;2024-03-22T15:53:13;15.10;44.00
6462;DHT22;3264;42.862;25.098;2024-03-22T15:55:43;15.10;44.60
6462;DHT22;3264;42.862;25.098;2024-03-22T15:58:10;15.00;44.70
6462;DHT22;3264;42.862;25.098;2024-03-22T16:00:38;14.90;44.70
6462;DHT22;3264;42.862;25.098;2024-03-22T16:03:05;14.80;44.40